Time;durP1;ratioP1;P1;durP2;ratioP2;P2;SDS_P1;SDS_P2;PMS_P1;PMS_P2;Temp;Humidity;BMP_temperature;BMP_pressure;BME280_temperature;BME280_humidity;BME280_pressure;Samples;Min_cycle;Max_cycle;Signal;HPM_P1;HPM_P2
2023/05/16 00:02:24;;;;;;;4.97;3.40;;;13.20;97.30;;;;;;5020428;28;20260;-88
2023/05/16 00:04:50;;;;;;;3.83;2.97;;;13.20;97.30;;;;;;5006513;28;20205;-88
2023/05/16 00:07:21;;;;;;;8.10;2.90;;;13.20;97.30;;;;;;5000906;28;20713;-89
2023/05/16 00:09:52;;;;;;;10.33;3.73;;;13.10;97.30;;;;;;5005352;28;20514;-88
2023/05/16 00:12:21;;;;;;;7.10;4.37;;;13.10;97.30;;;;;;4996296;28;20915;-88
2023/05/16 00:15:00;;;;;;;7.40;3.90;;;13.00;97.30;;;;;;5012497;28;20455;-89
2023/05/16 00:17:31;;;;;;;6.33;3.63;;;13.00;97.30;;;;;;5009514;28;20463;-88
2023/05/16 00:20:01;;;;;;;5.90;3.40;;;13.00;97.30;;;;;;5006334;28;20419;-89
2023/05/16 00:23:00;;;;;;;8.90;4.77;;;13.00;97.30;;;;;;5004360;28;20435;-88
2023/05/16 00:25:30;;;;;;;6.27;3.77;;;13.00;97.30;;;;;;5006199;28;20464;-88
2023/05/16 00:28:02;;;;;;;5.03;4.67;;;13.00;97.30;;;;;;4987936;28;20420;-89
2023/05/16 00:30:40;;;;;;;4.50;3.00;;;13.00;97.30;;;;;;5008409;28;20424;-89
2023/05/16 00:33:12;;;;;;;8.53;3.60;;;12.90;97.30;;;;;;5001062;28;20509;-89
2023/05/16 00:35:40;;;;;;;4.63;4.10;;;12.90;97.30;;;;;;4993279;28;20967;-88
2023/05/16 00:38:06;;;;;;;5.80;4.23;;;12.90;97.30;;;;;;4999483;28;21029;-88
2023/05/16 00:40:32;;;;;;;8.40;3.97;;;12.80;97.30;;;;;;5008390;28;20482;-88
2023/05/16 00:42:57;;;;;;;6.93;4.67;;;12.80;97.30;;;;;;5000960;28;20609;-88
2023/05/16 00:45:23;;;;;;;3.87;3.67;;;12.80;97.30;;;;;;4998337;28;20220;-88
2023/05/16 00:47:50;;;;;;;4.73;3.67;;;12.80;97.30;;;;;;4987629;28;20753;-88
2023/05/16 00:50:16;;;;;;;3.40;3.20;;;12.70;97.30;;;;;;4997321;28;20189;-89
2023/05/16 00:52:42;;;;;;;3.70;2.03;;;12.70;97.30;;;;;;5001707;28;20844;-88
2023/05/16 00:55:09;;;;;;;5.37;4.37;;;12.70;97.30;;;;;;4997755;28;20533;-89
2023/05/16 00:57:36;;;;;;;6.10;3.43;;;12.70;97.30;;;;;;4984747;28;20457;-88
2023/05/16 01:00:03;;;;;;;7.83;4.13;;;12.70;97.30;;;;;;5006786;28;20420;-88
2023/05/16 01:02:29;;;;;;;8.20;4.53;;;12.70;97.30;;;;;;4998665;28;20432;-88
2023/05/16 01:04:55;;;;;;;5.83;3.37;;;12.60;97.30;;;;;;5001351;28;20447;-88
2023/05/16 01:07:21;;;;;;;15.20;4.07;;;12.60;97.30;;;;;;4998537;28;20429;-89
2023/05/16 01:09:46;;;;;;;2.70;2.33;;;12.50;97.30;;;;;;4988477;28;20413;-89
2023/05/16 01:12:31;;;;;;;3.93;3.77;;;12.40;97.30;;;;;;5005048;28;20185;-90
2023/05/16 01:15:20;;;;;;;4.33;3.30;;;12.50;97.30;;;;;;4996766;28;20205;-88
2023/05/16 01:18:11;;;;;;;2.73;2.60;;;12.50;97.30;;;;;;4985818;28;20460;-87
2023/05/16 01:21:03;;;;;;;5.40;3.70;;;12.40;97.30;;;;;;4992809;28;20689;-90
2023/05/16 01:23:47;;;;;;;5.40;4.03;;;12.30;97.30;;;;;;4997479;28;20978;-89
2023/05/16 01:26:21;;;;;;;7.43;4.20;;;12.30;97.30;;;;;;4999952;28;20460;-88
2023/05/16 01:28:48;;;;;;;4.73;3.63;;;12.20;97.30;;;;;;4998948;28;20427;-89
2023/05/16 01:31:15;;;;;;;4.83;4.30;;;12.20;97.30;;;;;;5000196;28;20457;-89
2023/05/16 01:33:40;;;;;;;4.77;3.27;;;12.10;97.30;;;;;;5000245;28;20482;-87
2023/05/16 01:36:34;;;;;;;15.20;5.60;;;12.10;97.30;;;;;;4991971;28;20970;-88
2023/05/16 01:39:25;;;;;;;5.40;4.17;;;12.00;97.30;;;;;;4995344;28;20735;-89
2023/05/16 01:42:00;;;;;;;6.67;4.93;;;12.00;97.30;;;;;;5000434;28;20453;-88
2023/05/16 01:44:36;;;;;;;6.70;4.30;;;11.90;97.30;;;;;;5000553;28;20531;-89
2023/05/16 01:47:10;;;;;;;3.27;2.97;;;11.80;97.30;;;;;;5007304;28;21023;-88
2023/05/16 01:49:43;;;;;;;4.80;3.60;;;11.70;97.30;;;;;;4982569;28;20423;-89
2023/05/16 01:52:15;;;;;;;4.80;2.67;;;11.60;97.30;;;;;;4991773;28;20854;-89
2023/05/16 01:54:46;;;;;;;19.33;4.40;;;11.60;97.30;;;;;;5008656;28;20445;-88
2023/05/16 01:57:12;;;;;;;5.50;3.97;;;11.50;97.30;;;;;;5000841;28;20634;-86
2023/05/16 01:59:39;;;;;;;5.20;4.40;;;11.40;97.30;;;;;;4990446;28;20413;-89
2023/05/16 02:02:05;;;;;;;13.47;3.70;;;11.40;97.30;;;;;;4992854;28;20440;-90
2023/05/16 02:04:30;;;;;;;4.57;3.40;;;11.30;97.30;;;;;;5007879;28;21062;-88
2023/05/16 02:06:56;;;;;;;4.40;3.77;;;11.20;97.30;;;;;;4991450;28;20173;-89
2023/05/16 02:09:21;;;;;;;5.90;4.30;;;11.20;97.30;;;;;;4998471;28;20181;-88
2023/05/16 02:11:47;;;;;;;12.67;4.97;;;11.10;97.30;;;;;;4996283;28;20645;-88
2023/05/16 02:14:13;;;;;;;3.70;3.40;;;11.10;97.30;;;;;;4994563;28;20209;-88
2023/05/16 02:16:38;;;;;;;4.57;3.73;;;11.00;97.30;;;;;;5002847;28;20229;-89
2023/05/16 02:19:04;;;;;;;3.93;3.73;;;11.00;97.30;;;;;;5002924;28;20181;-89
2023/05/16 02:21:30;;;;;;;4.60;3.10;;;11.00;97.30;;;;;;4991622;28;20224;-87
2023/05/16 02:23:55;;;;;;;5.40;3.23;;;10.90;97.30;;;;;;4991596;28;20181;-89
2023/05/16 02:26:21;;;;;;;5.43;4.13;;;10.90;97.30;;;;;;5007193;28;20241;-91
2023/05/16 02:28:48;;;;;;;7.20;4.30;;;10.80;97.30;;;;;;4991724;28;20165;-89
2023/05/16 02:31:25;;;;;;;5.30;4.47;;;10.80;97.30;;;;;;5002861;28;20229;-89
2023/05/16 02:33:50;;;;;;;4.50;4.17;;;10.70;97.30;;;;;;5032064;28;20968;-88
2023/05/16 02:36:16;;;;;;;5.40;4.17;;;10.60;97.30;;;;;;4999863;28;20412;-88
2023/05/16 02:38:41;;;;;;;5.47;4.23;;;10.50;97.30;;;;;;5001838;28;20193;-89
2023/05/16 02:41:06;;;;;;;13.47;5.73;;;10.30;97.30;;;;;;5017811;28;20228;-91
2023/05/16 02:43:32;;;;;;;18.37;5.90;;;10.30;97.30;;;;;;5027091;28;20240;-93
2023/05/16 02:45:57;;;;;;;9.77;7.03;;;10.20;97.30;;;;;;5006157;28;20206;-89
2023/05/16 02:48:23;;;;;;;7.73;4.63;;;10.10;97.30;;;;;;5000634;28;20188;-88
2023/05/16 02:50:49;;;;;;;16.70;7.17;;;10.00;97.30;;;;;;5007359;28;20571;-89
2023/05/16 02:53:15;;;;;;;8.20;6.80;;;9.90;97.30;;;;;;5013551;28;20211;-86
2023/05/16 02:55:40;;;;;;;8.53;5.90;;;9.80;97.30;;;;;;5002341;28;20971;-88
2023/05/16 02:58:06;;;;;;;12.67;7.63;;;9.80;97.30;;;;;;5007785;28;20289;-88
2023/05/16 03:00:32;;;;;;;7.50;6.30;;;9.70;97.30;;;;;;5004217;28;20180;-89
2023/05/16 03:02:57;;;;;;;11.07;7.87;;;9.70;97.30;;;;;;5004291;28;20682;-89
2023/05/16 03:05:23;;;;;;;13.53;8.23;;;9.70;97.30;;;;;;5005492;28;20272;-89
2023/05/16 03:08:01;;;;;;;12.73;8.73;;;9.70;97.30;;;;;;5006766;28;20173;-86
2023/05/16 03:10:34;;;;;;;27.17;11.63;;;9.70;97.30;;;;;;4993631;28;20674;-88
2023/05/16 03:13:03;;;;;;;12.50;8.07;;;9.70;97.30;;;;;;5005626;28;20425;-90
2023/05/16 03:15:32;;;;;;;14.37;8.07;;;9.70;97.30;;;;;;5004925;28;20439;-90
2023/05/16 03:18:06;;;;;;;18.33;8.70;;;9.70;97.30;;;;;;5006123;28;20471;-89
2023/05/16 03:20:31;;;;;;;13.10;8.20;;;9.70;97.30;;;;;;5004305;28;20455;-89
2023/05/16 03:23:11;;;;;;;8.40;5.80;;;9.80;97.30;;;;;;5013062;28;20492;-88
2023/05/16 03:25:42;;;;;;;14.43;6.40;;;9.80;97.30;;;;;;5066044;23;20211;-88
2023/05/16 03:28:08;;;;;;;17.87;10.90;;;9.80;97.30;;;;;;5047875;28;20823;-86
2023/05/16 03:30:41;;;;;;;16.50;8.30;;;9.80;97.30;;;;;;5032794;28;21014;-86
2023/05/16 03:33:09;;;;;;;12.87;9.00;;;9.80;97.30;;;;;;5036988;28;20338;-86
2023/05/16 03:35:35;;;;;;;8.03;5.60;;;9.70;97.30;;;;;;5042014;28;20478;-85
2023/05/16 03:38:01;;;;;;;19.03;8.57;;;9.70;97.30;;;;;;5037353;28;20535;-86
2023/05/16 03:40:29;;;;;;;13.53;7.97;;;9.70;97.30;;;;;;5039083;28;20422;-86
2023/05/16 03:43:02;;;;;;;18.13;8.40;;;9.70;97.30;;;;;;5033239;28;20806;-86
2023/05/16 03:45:29;;;;;;;12.43;5.80;;;9.70;97.30;;;;;;5031737;28;20525;-88
2023/05/16 03:47:55;;;;;;;7.47;5.20;;;9.70;97.30;;;;;;5030451;28;20425;-87
2023/05/16 03:50:20;;;;;;;15.33;7.00;;;9.70;97.30;;;;;;5032281;28;20426;-87
2023/05/16 03:52:49;;;;;;;10.37;6.40;;;9.70;97.30;;;;;;5041116;28;20193;-87
2023/05/16 03:55:15;;;;;;;8.50;6.23;;;9.70;97.30;;;;;;5048161;28;20208;-88
2023/05/16 03:57:41;;;;;;;12.20;6.17;;;9.70;97.30;;;;;;5051903;28;20469;-88
2023/05/16 04:00:08;;;;;;;14.77;5.77;;;9.70;97.30;;;;;;5070774;28;20433;-92
2023/05/16 04:02:33;;;;;;;12.00;7.90;;;9.70;97.30;;;;;;5072823;28;20406;-92
2023/05/16 04:04:59;;;;;;;19.73;6.70;;;9.70;97.30;;;;;;5058969;28;20491;-89
2023/05/16 04:07:24;;;;;;;11.00;5.33;;;9.70;97.30;;;;;;5038032;28;20194;-87
2023/05/16 04:09:51;;;;;;;12.47;7.53;;;9.70;97.30;;;;;;5034582;28;20659;-88
2023/05/16 04:12:16;;;;;;;12.77;6.40;;;9.70;97.30;;;;;;5058395;28;20175;-88
2023/05/16 04:14:42;;;;;;;6.30;4.30;;;9.70;97.30;;;;;;5038844;28;20438;-88
2023/05/16 04:17:08;;;;;;;15.50;6.00;;;9.60;97.30;;;;;;5042844;28;20260;-87
2023/05/16 04:19:33;;;;;;;11.30;6.40;;;9.70;97.30;;;;;;5031503;28;20186;-88
2023/05/16 04:21:58;;;;;;;5.33;4.03;;;9.70;97.30;;;;;;5052789;28;21110;-85
2023/05/16 04:24:27;;;;;;;10.93;6.10;;;9.70;97.30;;;;;;5047844;28;20206;-88
2023/05/16 04:26:53;;;;;;;5.43;4.10;;;9.70;97.30;;;;;;5040801;28;20179;-86
2023/05/16 04:29:20;;;;;;;10.37;5.40;;;9.70;97.30;;;;;;5045669;28;20446;-83
2023/05/16 04:31:45;;;;;;;10.03;4.83;;;9.70;97.30;;;;;;5051331;28;20905;-88
2023/05/16 04:34:12;;;;;;;6.90;5.17;;;9.70;97.30;;;;;;5038383;28;20418;-87
2023/05/16 04:36:37;;;;;;;4.67;3.83;;;9.70;97.30;;;;;;5051817;28;20275;-81
2023/05/16 04:39:03;;;;;;;15.13;4.37;;;9.70;97.30;;;;;;5038570;28;20481;-85
2023/05/16 04:41:29;;;;;;;5.17;3.80;;;9.70;97.30;;;;;;5032399;28;20259;-89
2023/05/16 04:43:54;;;;;;;5.97;4.47;;;9.70;97.30;;;;;;5039115;28;20192;-87
2023/05/16 04:46:20;;;;;;;10.30;4.13;;;9.80;97.30;;;;;;5040016;28;20431;-87
2023/05/16 04:48:46;;;;;;;5.23;3.60;;;9.80;97.30;;;;;;5031851;28;20298;-86
2023/05/16 04:51:11;;;;;;;8.00;4.90;;;9.80;97.30;;;;;;5030588;28;20497;-86
2023/05/16 04:53:37;;;;;;;6.40;3.40;;;9.80;97.30;;;;;;5032673;28;20252;-86
2023/05/16 04:56:04;;;;;;;4.67;2.83;;;9.90;97.30;;;;;;5046059;28;20232;-86
2023/05/16 04:58:30;;;;;;;6.20;4.60;;;9.90;97.30;;;;;;5045323;28;20215;-87
2023/05/16 05:00:56;;;;;;;11.53;5.63;;;9.90;97.30;;;;;;5051548;28;20412;-85
2023/05/16 05:03:22;;;;;;;7.77;4.40;;;9.90;97.30;;;;;;5035137;28;20487;-86
2023/05/16 05:05:48;;;;;;;2.00;1.87;;;9.90;97.30;;;;;;5053021;28;20894;-84
2023/05/16 05:08:13;;;;;;;7.83;4.87;;;9.90;97.30;;;;;;5051485;28;20418;-87
2023/05/16 05:10:39;;;;;;;4.37;3.20;;;10.00;97.30;;;;;;5043709;28;20187;-86
2023/05/16 05:13:05;;;;;;;9.87;4.17;;;10.00;97.30;;;;;;5038599;28;20199;-85
2023/05/16 05:15:30;;;;;;;10.50;4.03;;;10.00;97.30;;;;;;5038291;28;20623;-83
2023/05/16 05:17:56;;;;;;;8.80;3.20;;;10.00;97.30;;;;;;5049962;28;20217;-85
2023/05/16 05:20:22;;;;;;;8.00;6.27;;;10.10;97.30;;;;;;5036824;28;20219;-84
2023/05/16 05:22:47;;;;;;;4.13;3.93;;;10.10;97.30;;;;;;5035967;28;20180;-89
2023/05/16 05:25:13;;;;;;;8.13;6.77;;;10.10;97.30;;;;;;5032410;28;20231;-87
2023/05/16 05:27:39;;;;;;;4.13;3.90;;;10.10;97.30;;;;;;5033053;28;20230;-88
2023/05/16 05:30:05;;;;;;;5.43;5.13;;;10.10;97.30;;;;;;5037749;28;20180;-87
2023/05/16 05:32:31;;;;;;;6.10;4.47;;;10.10;97.30;;;;;;5034265;28;20207;-88
2023/05/16 05:34:57;;;;;;;3.77;3.57;;;10.10;97.30;;;;;;5034725;28;20547;-87
2023/05/16 05:37:22;;;;;;;4.33;3.97;;;10.10;97.30;;;;;;5034627;28;20202;-85
2023/05/16 05:39:48;;;;;;;5.13;3.43;;;10.20;97.30;;;;;;5051821;28;20250;-87
2023/05/16 05:42:13;;;;;;;4.80;3.63;;;10.20;97.30;;;;;;5043309;28;20286;-89
2023/05/16 05:44:39;;;;;;;11.37;3.30;;;10.20;97.30;;;;;;5050723;28;20200;-91
2023/05/16 05:47:06;;;;;;;4.40;3.30;;;10.20;97.30;;;;;;5033662;28;20238;-89
2023/05/16 05:49:31;;;;;;;2.83;2.63;;;10.20;97.30;;;;;;5040022;28;20267;-87
2023/05/16 05:51:57;;;;;;;6.70;3.17;;;10.20;97.30;;;;;;5033517;28;20530;-87
2023/05/16 05:54:23;;;;;;;9.90;5.90;;;10.20;97.30;;;;;;5038075;28;20211;-86
2023/05/16 05:56:48;;;;;;;4.07;3.23;;;10.20;97.30;;;;;;5041089;28;20207;-90
2023/05/16 05:59:14;;;;;;;4.07;3.43;;;10.20;97.30;;;;;;5031649;28;20183;-87
2023/05/16 06:01:39;;;;;;;4.27;4.00;;;10.30;97.30;;;;;;5043151;28;20192;-89
2023/05/16 06:04:05;;;;;;;4.57;3.73;;;10.30;97.30;;;;;;5035305;28;20180;-88
2023/05/16 06:06:31;;;;;;;5.67;4.67;;;10.30;97.30;;;;;;5042469;28;20191;-90
2023/05/16 06:08:57;;;;;;;4.60;4.30;;;10.30;97.30;;;;;;5042632;28;20180;-88
2023/05/16 06:11:24;;;;;;;3.00;2.80;;;10.40;97.30;;;;;;5045259;28;20430;-88
2023/05/16 06:13:50;;;;;;;3.17;2.80;;;10.40;97.30;;;;;;5032467;28;20472;-88
2023/05/16 06:16:16;;;;;;;6.90;3.10;;;10.40;97.30;;;;;;5037854;28;20497;-88
2023/05/16 06:18:41;;;;;;;6.07;3.80;;;10.50;97.30;;;;;;5049397;28;20418;-88
2023/05/16 06:21:07;;;;;;;2.60;2.40;;;10.50;97.30;;;;;;5033984;28;20546;-87
2023/05/16 06:23:32;;;;;;;4.27;2.37;;;10.50;97.30;;;;;;5033919;28;20701;-89
2023/05/16 06:25:58;;;;;;;3.37;2.20;;;10.50;97.30;;;;;;5033774;28;20247;-87
2023/05/16 06:28:23;;;;;;;2.53;2.17;;;10.50;97.30;;;;;;5031212;28;20180;-90
2023/05/16 06:30:50;;;;;;;1.87;1.77;;;10.60;97.30;;;;;;5032112;28;20402;-87
2023/05/16 06:33:19;;;;;;;2.30;2.03;;;10.60;97.30;;;;;;5034422;28;20186;-87
2023/05/16 06:35:44;;;;;;;2.63;1.70;;;10.60;97.30;;;;;;5033383;28;20450;-87
2023/05/16 06:38:10;;;;;;;2.30;2.03;;;10.60;97.30;;;;;;5032145;28;20497;-86
2023/05/16 06:40:36;;;;;;;2.23;2.00;;;10.70;97.30;;;;;;5033148;28;20176;-88
2023/05/16 06:43:02;;;;;;;2.73;2.20;;;10.70;97.30;;;;;;5050808;28;20535;-87
2023/05/16 06:45:28;;;;;;;2.60;2.13;;;10.70;97.30;;;;;;5051099;28;20468;-87
2023/05/16 06:47:54;;;;;;;1.97;1.87;;;10.80;97.30;;;;;;5032798;28;20429;-87
2023/05/16 06:50:20;;;;;;;1.60;1.50;;;10.80;97.30;;;;;;5034099;28;20225;-87
2023/05/16 06:52:45;;;;;;;5.27;3.47;;;10.80;97.30;;;;;;5034125;28;20426;-86
2023/05/16 06:55:11;;;;;;;2.97;2.80;;;10.70;97.30;;;;;;5033863;28;20211;-89
2023/05/16 06:57:36;;;;;;;3.70;2.60;;;10.70;97.30;;;;;;5033081;28;20212;-88
2023/05/16 07:00:02;;;;;;;6.17;3.50;;;10.70;97.30;;;;;;5050786;28;20184;-88
2023/05/16 07:02:31;;;;;;;9.33;3.37;;;10.80;97.30;;;;;;5034682;28;20266;-88
2023/05/16 07:04:57;;;;;;;3.77;2.47;;;10.80;97.30;;;;;;5033805;28;20449;-87
2023/05/16 07:07:22;;;;;;;4.03;2.53;;;10.80;97.30;;;;;;5050885;28;20933;-88
2023/05/16 07:09:48;;;;;;;4.20;2.03;;;10.80;97.30;;;;;;5031954;28;20545;-87
2023/05/16 07:12:13;;;;;;;3.43;2.87;;;10.80;97.30;;;;;;5033943;28;20241;-87
2023/05/16 07:14:39;;;;;;;1.80;1.70;;;10.90;97.30;;;;;;5033365;28;20245;-87
2023/05/16 07:17:05;;;;;;;2.80;2.23;;;10.90;97.30;;;;;;5033218;28;20200;-87
2023/05/16 07:19:30;;;;;;;6.63;4.23;;;10.90;97.30;;;;;;5031952;28;20259;-89
2023/05/16 07:21:56;;;;;;;3.63;2.40;;;10.90;97.30;;;;;;5050853;28;20172;-88
2023/05/16 07:24:22;;;;;;;4.00;2.20;;;10.90;97.30;;;;;;5032732;28;20839;-85
2023/05/16 07:26:47;;;;;;;3.10;2.90;;;10.90;97.30;;;;;;5032659;28;20279;-87
2023/05/16 07:29:13;;;;;;;2.63;2.43;;;10.90;97.30;;;;;;5032303;28;20175;-88
2023/05/16 07:31:38;;;;;;;4.50;2.30;;;11.00;97.30;;;;;;5033044;28;20699;-87
2023/05/16 07:34:04;;;;;;;4.03;3.83;;;11.00;97.30;;;;;;5033039;28;20195;-88
2023/05/16 07:36:30;;;;;;;2.20;2.03;;;11.00;97.30;;;;;;5032862;28;20592;-86
2023/05/16 07:38:55;;;;;;;2.60;2.40;;;11.00;97.30;;;;;;5031683;28;20198;-87
2023/05/16 07:41:20;;;;;;;6.90;2.93;;;11.10;97.30;;;;;;5032585;28;20429;-86
2023/05/16 07:43:46;;;;;;;2.73;2.47;;;11.10;97.30;;;;;;5031863;28;20642;-88
2023/05/16 07:46:13;;;;;;;7.70;4.67;;;11.10;97.30;;;;;;5032602;28;20192;-87
2023/05/16 07:48:38;;;;;;;4.60;3.20;;;11.20;97.30;;;;;;5031532;28;20259;-89
2023/05/16 07:51:04;;;;;;;6.00;3.83;;;11.20;97.30;;;;;;5032960;28;20552;-88
2023/05/16 07:53:29;;;;;;;3.90;2.90;;;11.30;97.30;;;;;;5032662;28;20234;-86
2023/05/16 07:55:55;;;;;;;3.63;2.63;;;11.30;97.30;;;;;;5031741;28;20273;-86
2023/05/16 07:58:21;;;;;;;5.23;2.50;;;11.30;97.30;;;;;;5030555;28;20203;-89
2023/05/16 08:00:46;;;;;;;2.63;1.83;;;11.30;97.30;;;;;;5031918;28;20184;-87
2023/05/16 08:03:12;;;;;;;3.20;2.33;;;11.40;97.30;;;;;;5050307;28;20171;-88
2023/05/16 08:05:38;;;;;;;3.13;1.93;;;11.50;97.30;;;;;;5033456;28;20683;-87
2023/05/16 08:08:04;;;;;;;2.30;2.10;;;11.50;97.30;;;;;;5043932;28;20163;-91
2023/05/16 08:10:30;;;;;;;1.67;1.30;;;11.70;97.30;;;;;;5044304;28;20505;-87
2023/05/16 08:12:55;;;;;;;2.43;1.90;;;11.80;97.30;;;;;;5038390;28;20453;-88
2023/05/16 08:15:21;;;;;;;1.50;1.43;;;11.80;97.30;;;;;;5032626;28;20204;-88
2023/05/16 08:17:46;;;;;;;1.70;1.60;;;11.80;97.30;;;;;;5031860;28;20276;-88
2023/05/16 08:20:12;;;;;;;1.90;1.73;;;11.90;97.30;;;;;;5041503;28;20194;-89
2023/05/16 08:22:38;;;;;;;2.47;2.27;;;11.80;97.30;;;;;;5058222;28;20199;-88
2023/05/16 08:25:04;;;;;;;1.60;1.50;;;11.80;97.30;;;;;;5035458;28;20768;-86
2023/05/16 08:27:29;;;;;;;3.27;2.70;;;11.90;97.30;;;;;;5051252;28;20244;-86
2023/05/16 08:29:55;;;;;;;3.20;2.60;;;11.90;97.30;;;;;;5029885;28;20266;-87
2023/05/16 08:32:21;;;;;;;2.83;2.63;;;12.00;97.30;;;;;;5032203;28;20621;-90
2023/05/16 08:34:47;;;;;;;2.90;1.70;;;12.10;97.30;;;;;;5035262;28;20200;-87
2023/05/16 08:37:12;;;;;;;2.70;2.50;;;12.20;97.30;;;;;;5035784;28;20507;-87
2023/05/16 08:39:38;;;;;;;2.27;2.10;;;12.30;97.30;;;;;;5034840;28;20669;-88
2023/05/16 08:42:04;;;;;;;1.77;1.70;;;12.50;97.30;;;;;;5036380;28;20168;-86
2023/05/16 08:44:30;;;;;;;2.63;2.43;;;12.50;97.30;;;;;;5033498;28;20674;-86
2023/05/16 08:46:58;;;;;;;4.10;2.67;;;12.40;97.30;;;;;;5053372;28;20416;-87
2023/05/16 08:49:26;;;;;;;3.03;1.90;;;12.30;97.30;;;;;;5035391;28;20418;-86
2023/05/16 08:51:55;;;;;;;1.93;1.83;;;12.20;97.30;;;;;;5036480;28;20474;-88
2023/05/16 08:54:21;;;;;;;3.07;2.10;;;12.10;97.30;;;;;;5036315;28;20434;-88
2023/05/16 08:56:49;;;;;;;2.73;2.27;;;12.10;97.30;;;;;;5053724;28;20461;-87
2023/05/16 08:59:15;;;;;;;3.67;1.90;;;12.00;97.30;;;;;;5052197;28;20234;-88
2023/05/16 09:01:40;;;;;;;1.33;1.30;;;12.00;97.30;;;;;;5035478;28;20958;-87
2023/05/16 09:04:08;;;;;;;1.73;1.63;;;12.00;97.30;;;;;;5035767;28;20587;-88
2023/05/16 09:06:34;;;;;;;2.60;2.40;;;12.10;97.30;;;;;;5040676;28;20175;-88
2023/05/16 09:09:01;;;;;;;2.10;1.30;;;12.20;97.30;;;;;;5041826;28;20586;-89
2023/05/16 09:11:27;;;;;;;2.30;2.10;;;12.30;97.30;;;;;;5035421;28;20418;-88
2023/05/16 09:13:53;;;;;;;2.33;2.20;;;12.30;97.30;;;;;;5035619;28;20460;-86
2023/05/16 09:16:19;;;;;;;4.27;2.50;;;12.40;97.30;;;;;;5035025;28;20438;-88
2023/05/16 09:18:55;;;;;;;2.23;2.03;;;12.40;97.30;;;;;;5035714;28;20274;-87
2023/05/16 09:21:22;;;;;;;2.23;2.03;;;12.50;97.30;;;;;;5038991;28;20791;-88
2023/05/16 09:23:49;;;;;;;12.90;2.93;;;12.50;97.30;;;;;;5052337;28;20801;-88
2023/05/16 09:26:22;;;;;;;3.53;2.33;;;12.50;97.30;;;;;;5064591;23;20527;-88
2023/05/16 09:28:52;;;;;;;1.60;1.53;;;12.50;97.30;;;;;;5051555;28;20525;-88
2023/05/16 09:31:25;;;;;;;5.23;1.53;;;12.60;97.30;;;;;;5035414;28;20422;-88
2023/05/16 09:33:51;;;;;;;1.60;1.50;;;12.60;97.30;;;;;;5032253;28;20429;-88
2023/05/16 09:36:16;;;;;;;1.53;1.43;;;12.60;97.30;;;;;;5058882;28;20464;-87
2023/05/16 09:38:42;;;;;;;1.00;0.90;;;12.50;97.30;;;;;;5060672;28;20465;-87
2023/05/16 09:41:09;;;;;;;2.00;1.87;;;12.50;97.30;;;;;;5033625;28;20172;-88
2023/05/16 09:43:37;;;;;;;2.60;1.90;;;12.50;97.30;;;;;;5034746;28;20556;-87
2023/05/16 09:46:03;;;;;;;1.10;1.00;;;12.50;97.30;;;;;;5034098;28;20511;-87
2023/05/16 09:48:29;;;;;;;1.90;1.63;;;12.60;97.30;;;;;;5033297;28;20422;-87
2023/05/16 09:50:55;;;;;;;2.07;1.73;;;12.60;97.30;;;;;;5034628;28;20179;-88
2023/05/16 09:53:32;;;;;;;1.40;1.30;;;12.60;97.30;;;;;;5034642;28;20191;-88
2023/05/16 09:56:33;;;;;;;4.13;1.50;;;12.60;97.30;;;;;;5039772;23;20486;-88
2023/05/16 09:59:53;;;;;;;;;;;;;;;;;;;;;
2023/05/16 10:02:52;;;;;;;1.67;1.10;;;12.50;97.30;;;;;;4948848;28;20458;-86
2023/05/16 10:10:43;;;;;;;1.40;1.30;;;12.30;97.30;;;;;;5042220;28;20544;-88
2023/05/16 10:13:14;;;;;;;1.87;1.53;;;12.30;97.30;;;;;;5040576;28;20444;-88
2023/05/16 10:16:12;;;;;;;1.20;1.10;;;12.30;97.30;;;;;;5043166;28;20447;-89
2023/05/16 10:18:50;;;;;;;1.53;1.43;;;12.20;97.30;;;;;;5038227;28;20467;-88
2023/05/16 10:21:32;;;;;;;1.33;1.23;;;12.30;97.30;;;;;;5038617;28;20421;-88
2023/05/16 10:24:13;;;;;;;13.40;1.93;;;12.30;97.30;;;;;;5041529;28;20418;-87
2023/05/16 10:26:42;;;;;;;1.30;1.30;;;12.30;97.30;;;;;;5055155;23;20902;-88
2023/05/16 10:29:22;;;;;;;1.30;1.20;;;12.40;97.30;;;;;;5037709;28;20485;-88
2023/05/16 10:32:12;;;;;;;;;;;;;;;;;;;;;
2023/05/16 10:35:07;;;;;;;;;;;;;;;;;;;;;
2023/05/16 10:37:33;;;;;;;2.60;1.77;;;12.30;97.30;;;;;;5028710;28;20469;-88
2023/05/16 10:40:00;;;;;;;1.30;1.20;;;12.30;97.30;;;;;;5015969;28;20432;-89
2023/05/16 10:42:25;;;;;;;1.37;1.27;;;12.30;97.30;;;;;;5018732;28;20420;-88
2023/05/16 10:44:57;;;;;;;1.80;1.43;;;12.30;97.30;;;;;;5017295;28;20437;-88
2023/05/16 10:47:23;;;;;;;2.57;2.37;;;12.30;97.30;;;;;;5012519;28;20188;-87
2023/05/16 10:49:48;;;;;;;1.63;1.63;;;12.40;97.30;;;;;;5011448;28;20450;-87
2023/05/16 10:52:16;;;;;;;1.80;1.70;;;12.40;97.30;;;;;;5012907;28;20432;-88
2023/05/16 10:54:49;;;;;;;3.70;1.93;;;12.50;97.30;;;;;;5010602;28;20172;-88
2023/05/16 10:57:19;;;;;;;1.80;1.70;;;12.50;97.30;;;;;;5012419;28;20495;-87
2023/05/16 10:59:47;;;;;;;3.10;2.90;;;12.50;97.30;;;;;;5012049;28;20415;-87
2023/05/16 11:02:24;;;;;;;5.93;2.27;;;12.50;97.30;;;;;;5012764;28;20423;-87
2023/05/16 11:04:51;;;;;;;1.70;1.60;;;12.60;97.30;;;;;;5012895;28;20450;-87
2023/05/16 11:07:19;;;;;;;1.17;1.07;;;12.60;97.30;;;;;;5013265;28;20443;-88
2023/05/16 11:09:49;;;;;;;33.07;1.83;;;12.60;97.30;;;;;;5044153;28;20450;-90
2023/05/16 11:12:14;;;;;;;1.23;1.13;;;12.60;97.30;;;;;;5037913;28;20434;-89
2023/05/16 11:14:46;;;;;;;2.03;1.90;;;12.50;97.30;;;;;;5021164;28;20650;-86
2023/05/16 11:17:18;;;;;;;14.30;3.00;;;12.50;97.30;;;;;;5021077;28;20196;-88
2023/05/16 11:19:47;;;;;;;2.73;1.30;;;12.50;97.30;;;;;;5011322;28;20837;-87
2023/05/16 11:22:22;;;;;;;1.63;1.53;;;12.50;97.30;;;;;;5010575;28;20422;-87
2023/05/16 11:25:03;;;;;;;1.23;1.17;;;12.40;97.30;;;;;;5013224;28;20793;-87
2023/05/16 11:27:43;;;;;;;1.97;1.53;;;12.40;97.30;;;;;;5037541;28;20551;-87
2023/05/16 11:30:14;;;;;;;1.50;1.40;;;12.40;97.30;;;;;;5004147;28;20577;-87
2023/05/16 11:32:41;;;;;;;8.07;1.97;;;12.50;97.30;;;;;;5011061;28;20462;-87
2023/05/16 11:35:09;;;;;;;5.17;2.30;;;12.50;97.30;;;;;;5012603;28;20419;-87
2023/05/16 11:37:38;;;;;;;2.40;1.67;;;12.60;97.30;;;;;;5011796;28;20463;-86
2023/05/16 11:40:07;;;;;;;2.70;2.50;;;12.60;97.30;;;;;;5003509;28;20476;-87
2023/05/16 11:42:44;;;;;;;1.00;0.90;;;12.60;96.10;;;;;;5012802;28;20419;-86
2023/05/16 11:45:11;;;;;;;1.13;1.03;;;12.60;95.10;;;;;;5012491;28;20433;-87
2023/05/16 11:47:41;;;;;;;4.93;1.47;;;12.70;95.40;;;;;;5028990;28;20423;-87
2023/05/16 11:50:11;;;;;;;1.63;1.53;;;12.80;95.40;;;;;;5011544;28;20945;-87
2023/05/16 11:52:37;;;;;;;3.07;2.87;;;12.90;95.80;;;;;;5012119;28;20419;-87
2023/05/16 11:55:05;;;;;;;1.20;1.10;;;13.00;95.50;;;;;;5012312;28;20419;-87
2023/05/16 11:57:31;;;;;;;6.17;1.87;;;13.20;96.20;;;;;;5029644;28;20204;-87
2023/05/16 12:00:12;;;;;;;1.67;1.63;;;13.30;94.40;;;;;;5010622;28;20415;-87
2023/05/16 12:02:38;;;;;;;2.07;1.40;;;13.30;93.40;;;;;;5029703;28;20426;-87
2023/05/16 12:05:08;;;;;;;5.17;1.67;;;13.30;93.20;;;;;;5011529;28;20411;-87
2023/05/16 12:07:34;;;;;;;2.50;1.50;;;13.30;93.90;;;;;;5011606;28;20254;-87
2023/05/16 12:10:05;;;;;;;1.17;1.07;;;13.40;94.50;;;;;;5009638;28;20781;-87
2023/05/16 12:12:30;;;;;;;1.90;1.80;;;13.40;93.50;;;;;;5011336;28;20427;-87
2023/05/16 12:14:56;;;;;;;1.47;1.37;;;13.50;93.90;;;;;;5011571;28;20798;-87
2023/05/16 12:17:21;;;;;;;1.17;1.07;;;13.50;93.10;;;;;;5011790;28;20208;-87
2023/05/16 12:19:47;;;;;;;1.93;1.83;;;13.70;92.90;;;;;;5028130;28;20335;-87
2023/05/16 12:27:41;;;;;;;3.13;1.20;;;13.90;92.40;;;;;;5054567;22;20886;-87
2023/05/16 12:30:24;;;;;;;3.83;3.63;;;13.90;91.20;;;;;;5035115;28;20468;-86
2023/05/16 12:33:14;;;;;;;2.37;2.17;;;13.80;91.40;;;;;;5049788;28;20429;-87
2023/05/16 12:35:53;;;;;;;1.67;1.57;;;13.70;91.60;;;;;;5022110;28;20439;-83
2023/05/16 12:38:52;;;;;;;1.30;1.20;;;13.80;91.70;;;;;;5037835;28;20476;-88
2023/05/16 12:41:23;;;;;;;1.10;1.00;;;13.80;91.30;;;;;;5045008;28;20423;-87
2023/05/16 12:43:49;;;;;;;1.30;1.20;;;13.90;91.40;;;;;;5061141;28;20413;-87
2023/05/16 12:46:15;;;;;;;2.70;1.30;;;14.00;91.70;;;;;;5024783;28;20626;-87
2023/05/16 12:48:42;;;;;;;1.57;1.20;;;14.00;92.10;;;;;;5030210;28;20181;-86
2023/05/16 12:51:12;;;;;;;1.60;1.50;;;14.10;91.70;;;;;;5036590;28;20424;-87
2023/05/16 12:53:44;;;;;;;6.43;1.53;;;14.30;90.20;;;;;;5044569;28;20453;-87
2023/05/16 12:56:10;;;;;;;1.70;1.00;;;14.50;90.10;;;;;;5042254;28;20533;-87
2023/05/16 12:58:36;;;;;;;13.50;3.10;;;14.60;89.50;;;;;;5038866;28;20806;-88
2023/05/16 13:01:02;;;;;;;3.33;1.40;;;14.70;88.00;;;;;;5042503;28;20496;-86
2023/05/16 13:03:28;;;;;;;1.30;1.20;;;14.70;88.10;;;;;;5039637;28;20648;-86
2023/05/16 13:05:53;;;;;;;2.80;1.30;;;14.70;88.00;;;;;;5040052;28;20445;-87
2023/05/16 13:08:22;;;;;;;15.77;2.53;;;14.60;87.80;;;;;;5042802;28;20669;-86
2023/05/16 13:10:47;;;;;;;1.30;1.10;;;14.60;88.20;;;;;;5039335;28;20747;-86